createdAt,value
2018-07-06T00:00:37.916Z,19.69
2018-07-06T00:01:38.152Z,19.65
2018-07-06T00:02:38.152Z,19.66
2018-07-06T00:03:37.895Z,19.71
2018-07-06T00:04:38.142Z,19.68
2018-07-06T00:05:37.640Z,19.63
2018-07-06T00:06:38.141Z,19.66
2018-07-06T00:07:38.136Z,19.66
2018-07-06T00:08:38.149Z,19.56
2018-07-06T00:09:38.138Z,19.58
2018-07-06T00:10:38.139Z,19.51
2018-07-06T00:11:38.129Z,19.55
2018-07-06T00:12:38.124Z,19.44
2018-07-06T00:13:37.869Z,19.55
2018-07-06T00:14:38.120Z,19.56
2018-07-06T00:15:38.115Z,19.47
2018-07-06T00:16:38.114Z,19.51
2018-07-06T00:17:38.111Z,19.37
2018-07-06T00:18:38.109Z,19.46
2018-07-06T00:19:37.851Z,19.36
2018-07-06T00:20:38.102Z,19.31
2018-07-06T00:21:38.103Z,19.26
2018-07-06T00:22:38.095Z,19.32
2018-07-06T00:23:38.089Z,19.22
2018-07-06T00:24:38.093Z,19.23
2018-07-06T00:25:37.840Z,19.25
2018-07-06T00:26:38.085Z,19.22
2018-07-06T00:27:38.092Z,19.22
2018-07-06T00:28:37.574Z,19.1
2018-07-06T00:29:38.075Z,19.13
2018-07-06T00:30:37.823Z,19.07
2018-07-06T00:31:37.818Z,19.04
2018-07-06T00:32:38.068Z,19.07
2018-07-06T00:33:38.068Z,18.98
2018-07-06T00:34:38.060Z,18.94
2018-07-06T00:35:37.815Z,18.99
2018-07-06T00:36:38.117Z,18.9
2018-07-06T00:37:38.054Z,18.92
2018-07-06T00:38:38.052Z,18.91
2018-07-06T00:39:37.797Z,18.92
2018-07-06T00:40:38.067Z,18.81
2018-07-06T00:41:37.801Z,18.84
2018-07-06T00:42:38.038Z,18.82
2018-07-06T00:43:38.046Z,18.73
2018-07-06T00:44:38.041Z,18.84
2018-07-06T00:45:38.038Z,18.7
2018-07-06T00:46:38.035Z,18.76
2018-07-06T00:47:37.773Z,18.66
2018-07-06T00:48:38.038Z,18.66
2018-07-06T00:49:38.021Z,18.6
2018-07-06T00:50:38.020Z,18.57
2018-07-06T00:51:37.760Z,18.51
2018-07-06T00:52:38.016Z,18.52
2018-07-06T00:53:38.005Z,18.52
2018-07-06T00:54:37.501Z,18.58
2018-07-06T00:55:37.998Z,18.66
2018-07-06T00:56:37.744Z,18.69
2018-07-06T00:57:37.994Z,18.69
2018-07-06T00:58:37.989Z,18.72
2018-07-06T00:59:37.986Z,18.67
2018-07-06T01:00:38.003Z,18.76
2018-07-06T01:01:38.282Z,18.78
2018-07-06T01:02:37.989Z,18.78
2018-07-06T01:03:37.972Z,18.73
2018-07-06T01:04:37.975Z,18.84
2018-07-06T01:05:37.981Z,18.87
2018-07-06T01:06:37.966Z,18.87
2018-07-06T01:07:37.963Z,18.87
2018-07-06T01:08:37.962Z,18.91
2018-07-06T01:09:37.960Z,18.94
2018-07-06T01:10:37.710Z,18.94
2018-07-06T01:11:37.953Z,18.87
2018-07-06T01:12:37.945Z,18.98
2018-07-06T01:13:37.944Z,18.94
2018-07-06T01:14:37.943Z,18.91
2018-07-06T01:15:37.688Z,18.88
2018-07-06T01:16:37.943Z,19.07
2018-07-06T01:17:37.427Z,19
2018-07-06T01:18:37.930Z,18.95
2018-07-06T01:19:37.935Z,18.95
2018-07-06T01:20:37.930Z,18.94
2018-07-06T01:21:37.923Z,18.9
2018-07-06T01:22:37.666Z,18.78
2018-07-06T01:23:37.661Z,18.81
2018-07-06T01:24:37.910Z,18.88
2018-07-06T01:25:37.915Z,18.78
2018-07-06T01:26:37.904Z,18.82
2018-07-06T01:27:37.902Z,18.8
2018-07-06T01:28:37.654Z,18.69
2018-07-06T01:29:37.893Z,18.66
2018-07-06T01:30:37.894Z,18.57
2018-07-06T01:31:37.891Z,18.6
2018-07-06T01:32:37.901Z,18.52
2018-07-06T01:33:37.900Z,18.48
2018-07-06T01:34:37.877Z,18.42
2018-07-06T01:35:37.878Z,18.39
2018-07-06T01:36:37.872Z,18.45
2018-07-06T01:37:37.872Z,18.3
2018-07-06T01:38:37.879Z,18.39
2018-07-06T01:39:37.863Z,18.29
2018-07-06T01:40:37.861Z,18.35
2018-07-06T01:41:37.606Z,18.3
2018-07-06T01:42:37.605Z,18.17
2018-07-06T01:43:37.851Z,18.21
2018-07-06T01:44:37.853Z,18.2
2018-07-06T01:45:37.844Z,18.15
2018-07-06T01:46:37.843Z,18.1
2018-07-06T01:47:37.588Z,18.11
2018-07-06T01:48:37.834Z,18.02
2018-07-06T01:49:37.837Z,17.99
2018-07-06T01:50:37.830Z,17.9
2018-07-06T01:51:37.574Z,17.9
2018-07-06T01:52:37.570Z,17.82
2018-07-06T01:53:37.823Z,17.9
2018-07-06T01:54:37.821Z,17.87
2018-07-06T01:55:37.809Z,17.79
2018-07-06T01:56:37.809Z,17.74
2018-07-06T01:57:37.808Z,17.7
2018-07-06T01:58:37.802Z,17.66
2018-07-06T01:59:37.798Z,17.66
2018-07-06T02:00:37.798Z,17.64
2018-07-06T02:01:37.792Z,17.63
2018-07-06T02:02:37.787Z,17.64
2018-07-06T02:03:37.533Z,17.66
2018-07-06T02:04:37.528Z,17.68
2018-07-06T02:05:37.781Z,17.64
2018-07-06T02:06:37.773Z,17.66
2018-07-06T02:07:37.771Z,17.62
2018-07-06T02:08:37.768Z,17.63
2018-07-06T02:09:37.761Z,17.64
2018-07-06T02:10:37.776Z,17.66
2018-07-06T02:11:37.504Z,17.63
2018-07-06T02:12:37.800Z,17.66
2018-07-06T02:13:37.748Z,17.7
2018-07-06T02:14:37.755Z,17.64
2018-07-06T02:15:37.741Z,17.75
2018-07-06T02:16:37.739Z,17.71
2018-07-06T02:17:37.731Z,17.82
2018-07-06T02:18:37.733Z,17.86
2018-07-06T02:19:37.726Z,17.89
2018-07-06T02:20:37.725Z,17.84
2018-07-06T02:21:37.727Z,17.9
2018-07-06T02:22:37.721Z,17.95
2018-07-06T02:23:37.711Z,17.89
2018-07-06T02:24:37.708Z,17.9
2018-07-06T02:25:37.703Z,17.9
2018-07-06T02:26:37.706Z,17.92
2018-07-06T02:27:37.697Z,17.99
2018-07-06T02:28:37.694Z,18.02
2018-07-06T02:29:37.691Z,18
2018-07-06T02:30:37.689Z,18.02
2018-07-06T02:31:37.687Z,18.02
2018-07-06T02:32:37.681Z,17.99
2018-07-06T02:33:37.679Z,18.05
2018-07-06T02:34:37.677Z,17.99
2018-07-06T02:35:37.673Z,18
2018-07-06T02:36:37.921Z,17.97
2018-07-06T02:37:37.667Z,18
2018-07-06T02:38:37.656Z,17.96
2018-07-06T02:39:37.657Z,17.9
2018-07-06T02:40:37.650Z,17.93
2018-07-06T02:41:37.649Z,17.87
2018-07-06T02:42:37.653Z,17.82
2018-07-06T02:43:37.641Z,17.92
2018-07-06T02:44:37.641Z,17.79
2018-07-06T02:45:37.633Z,17.86
2018-07-06T02:46:37.628Z,17.86
2018-07-06T02:47:37.674Z,17.87
2018-07-06T02:48:37.373Z,17.87
2018-07-06T02:49:37.621Z,17.75
2018-07-06T02:50:37.633Z,17.87
2018-07-06T02:51:37.366Z,17.82
2018-07-06T02:52:37.608Z,17.84
2018-07-06T02:53:37.612Z,17.86
2018-07-06T02:54:37.620Z,17.84
2018-07-06T02:55:37.607Z,17.75
2018-07-06T02:56:37.764Z,17.84
2018-07-06T02:57:37.358Z,17.71
2018-07-06T02:58:37.343Z,17.74
2018-07-06T02:59:37.334Z,17.79
2018-07-06T03:00:37.588Z,17.72
2018-07-06T03:01:37.580Z,17.82
2018-07-06T03:02:37.582Z,17.84
2018-07-06T03:03:37.566Z,17.78
2018-07-06T03:04:37.312Z,17.77
2018-07-06T03:05:37.563Z,17.78
2018-07-06T03:06:37.561Z,17.77
2018-07-06T03:07:37.560Z,17.89
2018-07-06T03:08:37.549Z,17.75
2018-07-06T03:09:37.293Z,17.89
2018-07-06T03:10:37.295Z,17.92
2018-07-06T03:11:37.536Z,17.9
2018-07-06T03:12:37.549Z,17.92
2018-07-06T03:13:37.280Z,17.89
2018-07-06T03:14:37.527Z,17.89
2018-07-06T03:15:37.532Z,17.92
2018-07-06T03:16:37.521Z,17.97
2018-07-06T03:17:37.516Z,17.92
2018-07-06T03:18:37.516Z,17.92
2018-07-06T03:19:37.510Z,18
2018-07-06T03:20:37.506Z,17.87
2018-07-06T03:21:37.504Z,17.89
2018-07-06T03:22:37.255Z,17.89
2018-07-06T03:23:36.993Z,17.87
2018-07-06T03:24:37.240Z,17.92
2018-07-06T03:25:37.491Z,17.87
2018-07-06T03:26:37.486Z,17.79
2018-07-06T03:27:37.485Z,17.86
2018-07-06T03:28:38.557Z,17.79
2018-07-06T03:29:37.473Z,17.82
2018-07-06T03:30:37.471Z,17.75
2018-07-06T03:31:37.467Z,17.77
2018-07-06T03:32:37.466Z,17.7
2018-07-06T03:33:37.205Z,17.72
2018-07-06T03:34:37.459Z,17.64
2018-07-06T03:35:37.455Z,17.71
2018-07-06T03:36:37.447Z,17.68
2018-07-06T03:37:37.449Z,17.59
2018-07-06T03:38:37.439Z,17.63
2018-07-06T03:39:37.436Z,17.66
2018-07-06T03:40:37.432Z,17.71
2018-07-06T03:41:37.176Z,17.66
2018-07-06T03:42:37.428Z,17.71
2018-07-06T03:43:37.422Z,17.64
2018-07-06T03:44:37.165Z,17.77
2018-07-06T03:45:37.415Z,17.64
2018-07-06T03:46:37.415Z,17.75
2018-07-06T03:47:37.406Z,17.68
2018-07-06T03:48:36.900Z,17.82
2018-07-06T03:49:37.150Z,17.72
2018-07-06T03:50:37.401Z,17.86
2018-07-06T03:51:37.400Z,17.86
2018-07-06T03:52:37.394Z,17.89
2018-07-06T03:53:37.390Z,18.14
2018-07-06T03:54:37.384Z,18.23
2018-07-06T03:55:37.388Z,18.55
2018-07-06T03:56:37.381Z,18.73
2018-07-06T03:57:37.121Z,18.95
2018-07-06T03:58:37.370Z,19.08
2018-07-06T03:59:37.368Z,19.32
2018-07-06T04:00:37.367Z,19.47
2018-07-06T04:01:37.382Z,19.48
2018-07-06T04:02:37.359Z,19.74
2018-07-06T04:03:37.360Z,19.73
2018-07-06T04:04:37.353Z,19.91
2018-07-06T04:05:37.361Z,19.94
2018-07-06T04:06:37.356Z,20.17
2018-07-06T04:07:37.351Z,20.32
2018-07-06T04:08:37.095Z,20.59
2018-07-06T04:09:37.346Z,20.97
2018-07-06T04:10:37.344Z,21.29
2018-07-06T04:11:37.344Z,21.52
2018-07-06T04:12:37.353Z,21.68
2018-07-06T04:13:37.336Z,21.84
2018-07-06T04:14:37.337Z,22.07
2018-07-06T04:15:37.087Z,22.22
2018-07-06T04:16:37.339Z,22.39
2018-07-06T04:17:37.334Z,22.46
2018-07-06T04:18:37.336Z,22.51
2018-07-06T04:19:37.339Z,22.72
2018-07-06T04:20:37.334Z,22.92
2018-07-06T04:21:37.334Z,23.25
2018-07-06T04:22:37.084Z,23.61
2018-07-06T04:23:37.334Z,23.95
2018-07-06T04:24:37.336Z,24.28
2018-07-06T04:25:37.344Z,24.77
2018-07-06T04:26:37.607Z,24.93
2018-07-06T04:27:37.339Z,25.21
2018-07-06T04:28:36.836Z,25.32
2018-07-06T04:29:37.342Z,25.42
2018-07-06T04:30:37.348Z,25.55
2018-07-06T04:31:37.350Z,25.42
2018-07-06T04:32:37.348Z,25.52
2018-07-06T04:33:37.350Z,25.38
2018-07-06T04:34:37.352Z,25.33
2018-07-06T04:35:37.104Z,25.2
2018-07-06T04:36:37.359Z,25.15
2018-07-06T04:37:37.364Z,25.02
2018-07-06T04:38:37.364Z,25.03
2018-07-06T04:39:37.365Z,24.83
2018-07-06T04:40:37.368Z,24.73
2018-07-06T04:41:37.368Z,24.68
2018-07-06T04:42:37.370Z,24.65
2018-07-06T04:43:37.120Z,24.58
2018-07-06T04:44:37.373Z,24.43
2018-07-06T04:45:37.376Z,24.31
2018-07-06T04:46:37.383Z,24.34
2018-07-06T04:47:37.380Z,24.31
2018-07-06T04:48:37.380Z,24.2
2018-07-06T04:49:37.128Z,24.09
2018-07-06T04:50:37.384Z,24.08
2018-07-06T04:51:37.385Z,23.94
2018-07-06T04:52:37.393Z,23.87
2018-07-06T04:53:37.386Z,23.8
2018-07-06T04:54:37.387Z,23.83
2018-07-06T04:55:37.388Z,23.8
2018-07-06T04:56:37.391Z,23.79
2018-07-06T04:57:37.389Z,23.79
2018-07-06T04:58:37.389Z,23.79
2018-07-06T04:59:37.392Z,23.8
2018-07-06T05:00:37.398Z,23.9
2018-07-06T05:01:37.140Z,23.88
2018-07-06T05:02:37.394Z,23.9
2018-07-06T05:03:37.392Z,23.87
2018-07-06T05:04:37.398Z,23.88
2018-07-06T05:05:37.440Z,23.83
2018-07-06T05:06:37.394Z,23.79
2018-07-06T05:07:37.453Z,23.61
2018-07-06T05:08:37.146Z,23.66
2018-07-06T05:09:37.403Z,23.61
2018-07-06T05:10:37.403Z,23.54
2018-07-06T05:11:37.157Z,23.42
2018-07-06T05:12:37.652Z,23.32
2018-07-06T05:13:37.399Z,23.28
2018-07-06T05:14:37.150Z,23.25
2018-07-06T05:15:37.399Z,23.22
2018-07-06T05:16:37.573Z,23.22
2018-07-06T05:17:36.894Z,23.04
2018-07-06T05:18:37.411Z,22.94
2018-07-06T05:19:37.150Z,22.91
2018-07-06T05:20:37.150Z,22.82
2018-07-06T05:21:37.401Z,22.76
2018-07-06T05:22:37.640Z,22.67
2018-07-06T05:23:37.401Z,22.67
2018-07-06T05:24:37.418Z,22.58
2018-07-06T05:25:37.406Z,22.49
2018-07-06T05:26:37.401Z,22.4
2018-07-06T05:27:37.397Z,22.36
2018-07-06T05:28:37.398Z,22.1
2018-07-06T05:29:37.412Z,21.9
2018-07-06T05:30:37.395Z,21.82
2018-07-06T05:31:37.142Z,21.62
2018-07-06T05:32:37.144Z,21.62
2018-07-06T05:33:37.393Z,21.49
2018-07-06T05:34:37.389Z,21.38
2018-07-06T05:35:37.392Z,21.37
2018-07-06T05:36:37.137Z,21.28
2018-07-06T05:37:37.386Z,21.25
2018-07-06T05:38:37.390Z,21.21
2018-07-06T05:39:37.384Z,21.14
2018-07-06T05:40:37.384Z,21.16
2018-07-06T05:41:37.380Z,21.12
2018-07-06T05:42:37.388Z,21.13
2018-07-06T05:43:37.676Z,21.24
2018-07-06T05:44:37.124Z,21.25
2018-07-06T05:45:37.382Z,21.17
2018-07-06T05:46:37.122Z,21.19
2018-07-06T05:47:37.381Z,21.21
2018-07-06T05:48:37.121Z,21.22
2018-07-06T05:49:37.371Z,21.22
2018-07-06T05:50:37.371Z,21.24
2018-07-06T05:51:37.368Z,21.25
2018-07-06T05:52:37.366Z,21.17
2018-07-06T05:53:37.111Z,21.14
2018-07-06T05:54:37.363Z,21.17
2018-07-06T05:55:37.366Z,21.19
2018-07-06T05:56:37.108Z,21.13
2018-07-06T05:57:37.358Z,21.14
2018-07-06T05:58:37.107Z,21.16
2018-07-06T05:59:37.361Z,21.16
2018-07-06T06:00:37.354Z,21.17
2018-07-06T06:01:37.358Z,21.16
2018-07-06T06:02:37.353Z,21.27
2018-07-06T06:03:37.365Z,21.27
2018-07-06T06:04:37.436Z,21.31
2018-07-06T06:05:37.095Z,21.28
2018-07-06T06:06:37.349Z,21.38
2018-07-06T06:07:37.346Z,21.38
2018-07-06T06:08:37.342Z,21.37
2018-07-06T06:09:37.346Z,21.5
2018-07-06T06:10:37.340Z,21.59
2018-07-06T06:11:37.084Z,21.62
2018-07-06T06:12:37.336Z,21.65
2018-07-06T06:13:37.336Z,21.68
2018-07-06T06:14:37.335Z,21.67
2018-07-06T06:15:37.344Z,21.62
2018-07-06T06:16:37.330Z,21.58
2018-07-06T06:17:37.333Z,21.61
2018-07-06T06:18:37.583Z,21.58
2018-07-06T06:19:37.336Z,21.59
2018-07-06T06:20:37.332Z,21.58
2018-07-06T06:21:37.325Z,21.54
2018-07-06T06:22:37.323Z,21.59
2018-07-06T06:23:37.319Z,21.47
2018-07-06T06:24:37.316Z,21.49
2018-07-06T06:25:37.316Z,21.53
2018-07-06T06:26:37.315Z,21.53
2018-07-06T06:27:37.070Z,21.5
2018-07-06T06:28:37.325Z,21.4
2018-07-06T06:29:37.059Z,21.4
2018-07-06T06:30:37.324Z,21.34
2018-07-06T06:31:37.311Z,21.35
2018-07-06T06:32:37.522Z,21.4
2018-07-06T06:33:37.291Z,21.31
2018-07-06T06:34:37.302Z,21.38
2018-07-06T06:35:37.309Z,21.31
2018-07-06T06:36:37.311Z,21.34
2018-07-06T06:37:37.323Z,21.42
2018-07-06T06:38:37.304Z,21.34
2018-07-06T06:39:37.424Z,21.44
2018-07-06T06:40:37.293Z,21.35
2018-07-06T06:41:37.296Z,21.37
2018-07-06T06:42:37.046Z,21.35
2018-07-06T06:43:37.050Z,21.31
2018-07-06T06:44:37.354Z,21.47
2018-07-06T06:45:37.538Z,21.47
2018-07-06T06:46:37.087Z,21.46
2018-07-06T06:47:37.288Z,21.5
2018-07-06T06:48:37.031Z,21.59
2018-07-06T06:49:37.032Z,21.61
2018-07-06T06:50:37.284Z,21.56
2018-07-06T06:51:37.280Z,21.64
2018-07-06T06:52:37.027Z,21.68
2018-07-06T06:53:37.288Z,21.67
2018-07-06T06:54:37.282Z,21.8
2018-07-06T06:55:37.036Z,21.82
2018-07-06T06:56:37.272Z,21.92
2018-07-06T06:57:37.276Z,22.06
2018-07-06T06:58:37.279Z,22.07
2018-07-06T06:59:37.272Z,22.14
2018-07-06T07:00:37.291Z,22.06
2018-07-06T07:01:37.266Z,22.05
2018-07-06T07:02:37.273Z,22.07
2018-07-06T07:03:37.269Z,22.07
2018-07-06T07:04:37.275Z,22.07
2018-07-06T07:05:37.284Z,22.06
2018-07-06T07:06:37.273Z,22.07
2018-07-06T07:07:37.824Z,22.07
2018-07-06T07:08:37.260Z,22.09
2018-07-06T07:09:37.259Z,22.06
2018-07-06T07:10:37.269Z,22.03
2018-07-06T07:11:37.257Z,22.07
2018-07-06T07:12:37.259Z,22.07
2018-07-06T07:13:37.279Z,21.94
2018-07-06T07:14:37.277Z,21.94
2018-07-06T07:15:37.250Z,21.79
2018-07-06T07:16:37.002Z,21.69
2018-07-06T07:17:37.252Z,21.65
2018-07-06T07:18:37.246Z,21.71
2018-07-06T07:19:37.250Z,21.8
2018-07-06T07:20:37.244Z,21.83
2018-07-06T07:21:37.257Z,21.88
2018-07-06T07:22:37.005Z,21.88
2018-07-06T07:23:37.322Z,21.94
2018-07-06T07:24:37.247Z,21.92
2018-07-06T07:25:37.243Z,21.92
2018-07-06T07:26:37.243Z,21.94
2018-07-06T07:27:37.259Z,21.99
2018-07-06T07:28:37.252Z,22.07
2018-07-06T07:29:36.986Z,22.03
2018-07-06T07:30:37.249Z,22.07
2018-07-06T07:31:36.993Z,22.14
2018-07-06T07:32:36.979Z,22.12
2018-07-06T07:33:36.987Z,22.21
2018-07-06T07:34:37.233Z,22.36
2018-07-06T07:35:37.239Z,22.39
2018-07-06T07:36:37.234Z,22.47
2018-07-06T07:37:36.977Z,22.51
2018-07-06T07:38:37.228Z,22.55
2018-07-06T07:39:36.980Z,22.51
2018-07-06T07:40:36.980Z,22.55
2018-07-06T07:41:37.240Z,22.57
2018-07-06T07:42:37.232Z,22.51
2018-07-06T07:43:37.232Z,22.52
2018-07-06T07:44:37.233Z,22.49
2018-07-06T07:45:37.227Z,22.46
2018-07-06T07:46:37.565Z,22.42
2018-07-06T07:47:37.225Z,22.42
2018-07-06T07:48:36.981Z,22.39
2018-07-06T07:49:37.222Z,22.33
2018-07-06T07:50:37.224Z,22.4
2018-07-06T07:51:36.972Z,22.36
2018-07-06T07:52:37.238Z,22.31
2018-07-06T07:53:37.224Z,22.33
2018-07-06T07:54:37.443Z,22.36
2018-07-06T07:55:37.229Z,22.4
2018-07-06T07:56:37.216Z,22.49
2018-07-06T07:57:37.222Z,22.57
2018-07-06T07:58:37.213Z,22.49
2018-07-06T07:59:36.960Z,22.6
2018-07-06T08:00:37.683Z,22.61
2018-07-06T08:01:37.567Z,22.51
2018-07-06T08:02:37.251Z,22.39
2018-07-06T08:03:37.215Z,22.35
2018-07-06T08:04:37.222Z,22.2
2018-07-06T08:05:37.208Z,22.25
2018-07-06T08:06:37.041Z,22.21
2018-07-06T08:07:36.956Z,22.21
2018-07-06T08:08:37.213Z,22.18
2018-07-06T08:09:37.421Z,22.27
2018-07-06T08:10:37.219Z,22.35
2018-07-06T08:11:40.359Z,22.28
2018-07-06T08:12:36.951Z,22.27
2018-07-06T08:13:36.952Z,22.24
2018-07-06T08:14:37.399Z,22.22
2018-07-06T08:15:37.226Z,22.24
2018-07-06T08:16:36.952Z,22.25
2018-07-06T08:17:37.404Z,22.18
2018-07-06T08:18:36.948Z,22.2
2018-07-06T08:19:36.949Z,22.28
2018-07-06T08:20:37.217Z,22.51
2018-07-06T08:21:37.306Z,22.51
2018-07-06T08:22:37.235Z,22.49
2018-07-06T08:23:36.962Z,22.72
2018-07-06T08:24:37.228Z,22.83
2018-07-06T08:25:37.595Z,22.91
2018-07-06T08:26:37.236Z,23.01
2018-07-06T08:27:37.215Z,23.13
2018-07-06T08:28:37.200Z,23.22
2018-07-06T08:29:37.201Z,23.4
2018-07-06T08:30:37.248Z,23.39
2018-07-06T08:31:37.421Z,23.5
2018-07-06T08:32:37.199Z,23.54
2018-07-06T08:33:36.945Z,23.63
2018-07-06T08:34:37.322Z,23.66
2018-07-06T08:35:37.202Z,23.79
2018-07-06T08:36:37.283Z,23.98
2018-07-06T08:37:37.204Z,24.13
2018-07-06T08:38:37.206Z,24.2
2018-07-06T08:39:37.352Z,24.43
2018-07-06T08:40:37.245Z,24.6
2018-07-06T08:41:37.207Z,24.71
2018-07-06T08:42:36.955Z,24.8
2018-07-06T08:43:37.208Z,24.9
2018-07-06T08:44:37.213Z,24.98
2018-07-06T08:45:37.207Z,24.98
2018-07-06T08:46:36.973Z,25
2018-07-06T08:47:36.967Z,25
2018-07-06T08:48:37.207Z,25.02
2018-07-06T08:49:37.232Z,25.05
2018-07-06T08:50:37.210Z,25.14
2018-07-06T08:51:37.229Z,25.18
2018-07-06T08:52:36.963Z,25.24
2018-07-06T08:53:37.228Z,25.21
2018-07-06T08:54:37.216Z,25.38
2018-07-06T08:55:37.231Z,25.36
2018-07-06T08:56:37.254Z,25.32
2018-07-06T08:57:36.971Z,25.3
2018-07-06T08:58:37.420Z,25.4
2018-07-06T08:59:37.243Z,25.36
2018-07-06T09:00:37.232Z,25.45
2018-07-06T09:01:37.231Z,25.61
2018-07-06T09:02:37.245Z,25.79
2018-07-06T09:03:37.253Z,25.77
2018-07-06T09:04:37.683Z,25.75
2018-07-06T09:05:37.239Z,25.79
2018-07-06T09:06:37.243Z,25.83
2018-07-06T09:07:37.342Z,25.69
2018-07-06T09:08:37.029Z,25.61
2018-07-06T09:09:37.265Z,25.52
2018-07-06T09:10:37.254Z,25.45
2018-07-06T09:11:37.269Z,25.51
2018-07-06T09:12:37.261Z,25.52
2018-07-06T09:13:37.011Z,25.54
2018-07-06T09:14:37.266Z,25.45
2018-07-06T09:15:37.273Z,25.5
2018-07-06T09:16:37.277Z,25.51
2018-07-06T09:17:37.291Z,25.47
2018-07-06T09:18:37.275Z,25.4
2018-07-06T09:19:37.673Z,25.5
2018-07-06T09:20:37.286Z,25.51
2018-07-06T09:21:37.289Z,25.51
2018-07-06T09:22:37.026Z,25.57
2018-07-06T09:23:37.044Z,25.61
2018-07-06T09:24:37.285Z,25.73
2018-07-06T09:25:37.651Z,25.85
2018-07-06T09:26:37.036Z,25.85
2018-07-06T09:27:37.297Z,25.98
2018-07-06T09:28:37.297Z,26.01
2018-07-06T09:29:37.044Z,26.28
2018-07-06T09:30:37.051Z,26.43
2018-07-06T09:31:37.314Z,26.37
2018-07-06T09:32:37.053Z,26.51
2018-07-06T09:33:37.314Z,26.6
2018-07-06T09:34:37.309Z,26.37
2018-07-06T09:35:37.316Z,26.3
2018-07-06T09:36:37.317Z,26.23
2018-07-06T09:37:37.060Z,26.02
2018-07-06T09:38:36.821Z,25.92
2018-07-06T09:39:37.331Z,26.01
2018-07-06T09:40:37.325Z,25.98
2018-07-06T09:41:37.071Z,26.12
2018-07-06T09:42:37.329Z,26.23
2018-07-06T09:43:37.367Z,26.43
2018-07-06T09:44:37.338Z,26.57
2018-07-06T09:45:37.336Z,26.73
2018-07-06T09:46:37.085Z,26.88
2018-07-06T09:47:37.359Z,26.88
2018-07-06T09:48:37.100Z,26.82
2018-07-06T09:49:37.348Z,26.65
2018-07-06T09:50:37.110Z,26.5
2018-07-06T09:51:37.366Z,26.29
2018-07-06T09:52:37.358Z,26.1
2018-07-06T09:53:37.112Z,25.97
2018-07-06T09:54:37.132Z,25.83
2018-07-06T09:55:37.387Z,25.83
2018-07-06T09:56:37.381Z,25.82
2018-07-06T09:57:37.139Z,26.09
2018-07-06T09:58:37.382Z,26.1
2018-07-06T09:59:37.384Z,26.26
2018-07-06T10:00:37.394Z,26.45
2018-07-06T10:01:37.417Z,26.62
2018-07-06T10:02:36.896Z,26.58
2018-07-06T10:03:37.425Z,26.63
2018-07-06T10:04:37.406Z,26.72
2018-07-06T10:05:37.192Z,26.82
2018-07-06T10:06:37.404Z,26.82
2018-07-06T10:07:37.415Z,26.81
2018-07-06T10:08:37.412Z,26.91
2018-07-06T10:09:37.410Z,27
2018-07-06T10:10:37.416Z,27.07
2018-07-06T10:11:37.429Z,27.02
2018-07-06T10:12:37.588Z,27.19
2018-07-06T10:13:37.427Z,27.13
2018-07-06T10:14:37.428Z,27.22
2018-07-06T10:15:37.192Z,27.22
2018-07-06T10:16:37.184Z,27.24
2018-07-06T10:17:37.199Z,27.07
2018-07-06T10:18:37.442Z,27.04
2018-07-06T10:19:37.816Z,27
2018-07-06T10:20:37.458Z,26.97
2018-07-06T10:21:37.202Z,26.97
2018-07-06T10:22:37.209Z,26.87
2018-07-06T10:23:37.219Z,26.87
2018-07-06T10:24:37.482Z,27.02
2018-07-06T10:25:37.487Z,27.03
2018-07-06T10:26:36.969Z,27
2018-07-06T10:27:37.247Z,27.04
2018-07-06T10:28:37.225Z,26.85
2018-07-06T10:29:37.481Z,26.81
2018-07-06T10:30:37.499Z,26.67
2018-07-06T10:31:37.486Z,26.58
2018-07-06T10:32:37.502Z,26.6
2018-07-06T10:33:37.722Z,26.58
2018-07-06T10:34:37.521Z,26.63
2018-07-06T10:35:37.520Z,26.66
2018-07-06T10:36:37.521Z,26.54
2018-07-06T10:37:37.257Z,26.6
2018-07-06T10:38:37.514Z,26.44
2018-07-06T10:39:37.813Z,26.4
2018-07-06T10:40:37.576Z,26.3
2018-07-06T10:41:37.522Z,26.23
2018-07-06T10:42:37.537Z,26.07
2018-07-06T10:43:37.530Z,26.06
2018-07-06T10:44:37.306Z,26.1
2018-07-06T10:45:37.532Z,26.05
2018-07-06T10:46:37.702Z,26.2
2018-07-06T10:47:37.538Z,26.25
2018-07-06T10:48:37.295Z,26.23
2018-07-06T10:49:37.548Z,26.3
2018-07-06T10:50:37.553Z,26.25
2018-07-06T10:51:37.597Z,26.32
2018-07-06T10:52:37.556Z,26.23
2018-07-06T10:53:37.046Z,26.21
2018-07-06T10:54:37.307Z,26.23
2018-07-06T10:55:37.555Z,26.25
2018-07-06T10:56:37.562Z,26.12
2018-07-06T10:57:37.567Z,26.01
2018-07-06T10:58:37.583Z,26.1
2018-07-06T10:59:37.576Z,26.05
2018-07-06T11:00:37.576Z,26.02
2018-07-06T11:01:37.594Z,25.95
2018-07-06T11:02:37.599Z,25.94
2018-07-06T11:03:37.333Z,25.94
2018-07-06T11:04:37.581Z,25.94
2018-07-06T11:05:37.080Z,25.99
2018-07-06T11:06:37.585Z,26.02
2018-07-06T11:07:37.589Z,26.12
2018-07-06T11:08:37.585Z,26.09
2018-07-06T11:09:37.588Z,26.1
2018-07-06T11:10:37.593Z,26.01
2018-07-06T11:11:37.774Z,26.05
2018-07-06T11:12:37.622Z,26.1
2018-07-06T11:13:37.595Z,26.02
2018-07-06T11:14:37.602Z,26.01
2018-07-06T11:15:37.349Z,25.97
2018-07-06T11:16:37.349Z,25.9
2018-07-06T11:17:37.635Z,25.99
2018-07-06T11:18:37.611Z,26.02
2018-07-06T11:19:37.610Z,26.1
2018-07-06T11:20:37.365Z,26.02
2018-07-06T11:21:37.619Z,26.05
2018-07-06T11:22:37.380Z,26.07
2018-07-06T11:23:37.379Z,26.05
2018-07-06T11:24:37.367Z,26.12
2018-07-06T11:25:37.376Z,26.09
2018-07-06T11:26:37.629Z,26.02
2018-07-06T11:27:37.636Z,26.01
2018-07-06T11:28:37.636Z,25.99
2018-07-06T11:29:37.379Z,25.94
2018-07-06T11:30:37.639Z,25.85
2018-07-06T11:31:37.396Z,25.82
2018-07-06T11:32:37.640Z,25.9
2018-07-06T11:33:37.673Z,25.95
2018-07-06T11:34:37.662Z,25.98
2018-07-06T11:35:37.645Z,26.01
2018-07-06T11:36:37.406Z,25.99
2018-07-06T11:37:37.656Z,26.05
2018-07-06T11:38:37.680Z,26.13
2018-07-06T11:39:37.660Z,26.3
2018-07-06T11:40:37.658Z,26.4
2018-07-06T11:41:37.662Z,26.39
2018-07-06T11:42:37.411Z,26.55
2018-07-06T11:43:37.665Z,26.5
2018-07-06T11:44:37.667Z,26.62
2018-07-06T11:45:37.424Z,26.54
2018-07-06T11:46:37.678Z,26.7
2018-07-06T11:47:37.680Z,26.7
2018-07-06T11:48:37.681Z,26.62
2018-07-06T11:49:37.688Z,26.62
2018-07-06T11:50:37.686Z,26.62
2018-07-06T11:51:37.730Z,26.67
2018-07-06T11:52:37.686Z,26.66
2018-07-06T11:53:37.695Z,26.77
2018-07-06T11:54:37.695Z,26.87
2018-07-06T11:55:37.703Z,26.8
2018-07-06T11:56:37.699Z,26.99
2018-07-06T11:57:37.456Z,27.04
2018-07-06T11:58:37.713Z,27.1
2018-07-06T11:59:37.455Z,27.32
2018-07-06T12:00:37.711Z,27.47
2018-07-06T12:01:37.717Z,27.63
2018-07-06T12:02:37.727Z,27.7
2018-07-06T12:03:37.723Z,27.67
2018-07-06T12:04:37.605Z,27.75
2018-07-06T12:05:37.736Z,27.67
2018-07-06T12:06:37.740Z,27.77
2018-07-06T12:07:37.491Z,27.72
2018-07-06T12:08:37.732Z,27.72
2018-07-06T12:09:37.741Z,27.65
2018-07-06T12:10:37.750Z,27.62
2018-07-06T12:11:37.754Z,27.44
2018-07-06T12:12:37.751Z,27.46
2018-07-06T12:13:37.774Z,27.32
2018-07-06T12:14:37.507Z,27.32
2018-07-06T12:15:37.924Z,27.22
2018-07-06T12:16:37.516Z,27.17
2018-07-06T12:17:37.762Z,27.21
2018-07-06T12:18:37.802Z,27.09
2018-07-06T12:19:37.771Z,27.03
2018-07-06T12:20:37.772Z,27.02
2018-07-06T12:21:37.780Z,27.06
2018-07-06T12:22:37.527Z,26.94
2018-07-06T12:23:37.542Z,26.87
2018-07-06T12:24:37.789Z,26.8
2018-07-06T12:25:37.540Z,26.82
2018-07-06T12:26:37.540Z,26.77
2018-07-06T12:27:37.817Z,26.63
2018-07-06T12:28:37.568Z,26.58
2018-07-06T12:29:37.799Z,26.44
2018-07-06T12:30:37.553Z,26.32
2018-07-06T12:31:37.571Z,26.28
2018-07-06T12:32:37.808Z,26.12
2018-07-06T12:33:37.815Z,26.09
2018-07-06T12:34:37.812Z,26.07
2018-07-06T12:35:37.825Z,26.09
2018-07-06T12:36:37.860Z,25.88
2018-07-06T12:37:37.571Z,25.77
2018-07-06T12:38:38.077Z,25.69
2018-07-06T12:39:37.575Z,25.64
2018-07-06T12:40:37.833Z,25.57
2018-07-06T12:41:38.030Z,25.55
2018-07-06T12:42:37.578Z,25.47
2018-07-06T12:43:37.839Z,25.45
2018-07-06T12:44:37.844Z,25.4
2018-07-06T12:45:37.836Z,25.38
2018-07-06T12:46:37.839Z,25.42
2018-07-06T12:47:37.601Z,25.42
2018-07-06T12:48:37.910Z,25.61
2018-07-06T12:49:37.589Z,25.64
2018-07-06T12:50:37.855Z,25.65
2018-07-06T12:51:37.846Z,25.67
2018-07-06T12:52:37.598Z,25.79
2018-07-06T12:53:37.864Z,25.73
2018-07-06T12:54:37.863Z,25.85
2018-07-06T12:55:37.868Z,25.88
2018-07-06T12:56:37.871Z,26.01